createdAt,value
2022-09-03T00:00:27.024Z,3.60
2022-09-03T00:02:58.884Z,5.00
2022-09-03T00:05:34.545Z,4.00
2022-09-03T00:08:04.991Z,3.50
2022-09-03T00:10:38.213Z,3.50
2022-09-03T00:13:06.827Z,3.00
2022-09-03T00:15:35.186Z,3.00
2022-09-03T00:18:06.652Z,3.00
2022-09-03T00:20:39.742Z,4.00
2022-09-03T00:23:08.991Z,5.00
2022-09-03T00:25:39.613Z,3.60
2022-09-03T00:28:12.772Z,3.00
2022-09-03T00:30:41.450Z,5.00
2022-09-03T00:33:11.083Z,4.00
2022-09-03T00:35:43.616Z,10.80
2022-09-03T00:38:11.684Z,10.00
2022-09-03T00:41:06.916Z,6.00
2022-09-03T00:43:47.826Z,5.00
2022-09-03T00:46:19.764Z,3.80
2022-09-03T00:48:56.988Z,3.00
2022-09-03T00:51:29.434Z,3.00
2022-09-03T00:54:01.321Z,3.00
2022-09-03T00:56:32.444Z,4.40
2022-09-03T00:59:08.951Z,4.00
2022-09-03T01:01:40.799Z,3.00
2022-09-03T01:04:27.145Z,4.00
2022-09-03T01:06:59.968Z,4.00
2022-09-03T01:09:34.908Z,5.50
2022-09-03T01:12:06.142Z,3.00
2022-09-03T01:14:41.800Z,5.00
2022-09-03T01:17:14.659Z,4.00
2022-09-03T01:19:57.569Z,4.00
2022-09-03T01:22:43.720Z,3.20
2022-09-03T01:25:17.775Z,4.60
2022-09-03T01:28:04.123Z,4.00
2022-09-03T01:30:32.767Z,3.00
2022-09-03T01:33:03.083Z,3.00
2022-09-03T01:35:35.070Z,4.40
2022-09-03T01:38:18.237Z,4.00
2022-09-03T01:40:50.915Z,3.00
2022-09-03T01:43:38.511Z,3.00
2022-09-03T01:46:14.036Z,5.67
2022-09-03T01:48:47.260Z,3.80
2022-09-03T01:51:22.404Z,4.00
2022-09-03T01:54:21.008Z,4.00
2022-09-03T01:57:12.670Z,3.40
2022-09-03T02:00:01.142Z,4.00
2022-09-03T02:02:30.877Z,4.60
2022-09-03T02:05:01.088Z,5.00
2022-09-03T02:07:33.589Z,5.00
2022-09-03T02:10:02.097Z,5.75
2022-09-03T02:12:33.745Z,5.40
2022-09-03T02:15:04.796Z,4.00
2022-09-03T02:17:33.020Z,5.00
2022-09-03T02:20:02.256Z,4.00
2022-09-03T02:22:30.555Z,5.00
2022-09-03T02:24:58.674Z,4.60
2022-09-03T02:27:26.784Z,5.00
2022-09-03T02:29:54.876Z,4.60
2022-09-03T02:32:24.292Z,5.40
2022-09-03T02:34:52.384Z,4.00
2022-09-03T02:37:20.464Z,4.00
2022-09-03T02:39:48.803Z,4.00
2022-09-03T02:42:17.269Z,2.00
2022-09-03T02:44:47.296Z,3.20
2022-09-03T02:47:15.436Z,5.00
2022-09-03T02:49:46.926Z,4.00
2022-09-03T02:52:14.995Z,4.00
2022-09-03T02:54:45.240Z,4.20
2022-09-03T02:57:14.335Z,3.00
2022-09-03T02:59:44.244Z,4.20
2022-09-03T03:02:12.582Z,4.60
2022-09-03T03:04:41.086Z,5.00
2022-09-03T03:07:10.515Z,3.20
2022-09-03T03:09:38.608Z,5.00
2022-09-03T03:12:07.294Z,5.50
2022-09-03T03:14:35.385Z,3.60
2022-09-03T03:17:03.559Z,5.00
2022-09-03T03:19:31.734Z,3.40
2022-09-03T03:21:59.856Z,5.00
2022-09-03T03:24:29.318Z,6.00
2022-09-03T03:26:59.417Z,4.75
2022-09-03T03:29:27.522Z,4.00
2022-09-03T03:31:56.168Z,4.20
2022-09-03T03:34:24.256Z,3.00
2022-09-03T03:36:52.334Z,4.00
2022-09-03T03:39:20.947Z,3.00
2022-09-03T03:41:52.534Z,5.50
2022-09-03T03:44:21.278Z,5.00
2022-09-03T03:46:49.340Z,5.00
2022-09-03T03:49:17.442Z,5.00
2022-09-03T03:51:45.513Z,5.00
2022-09-03T03:54:14.532Z,6.00
2022-09-03T03:56:46.894Z,4.40
2022-09-03T03:59:25.062Z,6.00
2022-09-03T04:01:53.957Z,5.00
2022-09-03T04:04:22.060Z,4.00
2022-09-03T04:06:50.132Z,4.00
2022-09-03T04:09:18.232Z,5.00
2022-09-03T04:11:46.314Z,5.00
2022-09-03T04:14:14.419Z,4.40
2022-09-03T04:16:46.866Z,4.00
2022-09-03T04:19:14.992Z,6.00
2022-09-03T04:21:43.050Z,5.60
2022-09-03T04:24:11.178Z,4.00
2022-09-03T04:26:40.726Z,4.00
2022-09-03T04:29:09.834Z,4.00
2022-09-03T04:31:38.653Z,4.00
2022-09-03T04:34:09.541Z,5.00
2022-09-03T04:36:38.136Z,4.00
2022-09-03T04:39:06.234Z,4.00
2022-09-03T04:41:34.296Z,5.00
2022-09-03T04:44:02.456Z,4.00
2022-09-03T04:46:33.657Z,4.00
2022-09-03T04:49:02.429Z,5.00
2022-09-03T04:51:31.992Z,5.00
2022-09-03T04:54:01.410Z,5.00
2022-09-03T04:56:30.924Z,5.00
2022-09-03T04:59:00.222Z,5.00
2022-09-03T05:01:30.643Z,3.00
2022-09-03T05:03:59.106Z,4.00
2022-09-03T05:06:27.230Z,5.00
2022-09-03T05:08:56.870Z,6.00
2022-09-03T05:11:25.361Z,4.60
2022-09-03T05:13:54.690Z,6.00
2022-09-03T05:16:23.801Z,4.50
2022-09-03T05:18:54.148Z,4.00
2022-09-03T05:21:22.405Z,5.00
2022-09-03T05:23:51.477Z,4.00
2022-09-03T05:26:23.530Z,3.80
2022-09-03T05:28:54.629Z,3.00
2022-09-03T05:31:22.952Z,4.00
2022-09-03T05:33:52.225Z,4.00
2022-09-03T05:36:22.369Z,4.00
2022-09-03T05:38:50.983Z,3.00
2022-09-03T05:41:21.163Z,2.25
2022-09-03T05:43:55.299Z,3.00
2022-09-03T05:46:30.229Z,4.00
2022-09-03T05:48:58.712Z,4.00
2022-09-03T05:51:26.792Z,3.00
2022-09-03T05:53:55.670Z,4.00
2022-09-03T05:56:25.897Z,3.00
2022-09-03T05:58:54.993Z,3.00
2022-09-03T06:01:23.891Z,4.00
2022-09-03T06:03:55.338Z,4.20
2022-09-03T06:06:25.712Z,3.00
2022-09-03T06:08:53.841Z,4.00
2022-09-03T06:11:23.553Z,3.00
2022-09-03T06:13:53.394Z,4.00
2022-09-03T06:16:25.482Z,3.00
2022-09-03T06:18:59.766Z,3.00
2022-09-03T06:21:27.905Z,3.00
2022-09-03T06:23:59.472Z,4.00
2022-09-03T06:26:29.320Z,3.00
2022-09-03T06:29:00.072Z,3.40
2022-09-03T06:31:28.313Z,3.00
2022-09-03T06:34:00.755Z,3.75
2022-09-03T06:36:31.588Z,4.00
2022-09-03T06:38:59.689Z,3.00
2022-09-03T06:41:29.373Z,3.00
2022-09-03T06:44:03.489Z,3.00
2022-09-03T06:46:32.687Z,3.60
2022-09-03T06:49:00.821Z,3.00
2022-09-03T06:51:29.645Z,3.00
2022-09-03T06:54:01.376Z,3.00
2022-09-03T06:56:29.446Z,3.00
2022-09-03T06:58:59.602Z,4.80
2022-09-03T07:01:31.636Z,3.00
2022-09-03T07:04:01.056Z,2.00
2022-09-03T07:06:30.025Z,3.40
2022-09-03T07:08:59.858Z,3.00
2022-09-03T07:11:29.421Z,3.00
2022-09-03T07:13:59.093Z,4.00
2022-09-03T07:16:28.170Z,2.20
2022-09-03T07:18:56.722Z,2.00
2022-09-03T07:21:25.595Z,4.00
2022-09-03T07:23:54.116Z,3.00
2022-09-03T07:26:23.058Z,3.00
2022-09-03T07:28:51.252Z,3.00
2022-09-03T07:31:26.098Z,2.40
2022-09-03T07:33:56.425Z,1.67
2022-09-03T07:36:25.160Z,2.60
2022-09-03T07:38:56.641Z,2.00
2022-09-03T07:41:28.742Z,3.00
2022-09-03T07:43:57.603Z,2.50
2022-09-03T07:46:27.983Z,2.00
2022-09-03T07:48:58.585Z,4.00
2022-09-03T07:51:28.420Z,2.00
2022-09-03T07:53:57.734Z,2.00
2022-09-03T07:56:26.071Z,2.00
2022-09-03T07:58:55.345Z,1.25
2022-09-03T08:01:24.003Z,1.40
2022-09-03T08:03:54.309Z,2.00
2022-09-03T08:06:23.486Z,2.00
2022-09-03T08:09:00.785Z,1.50
2022-09-03T08:11:31.793Z,1.00
2022-09-03T08:14:01.844Z,0.60
2022-09-03T08:16:30.356Z,1.00
2022-09-03T08:19:00.022Z,2.00
2022-09-03T08:21:28.752Z,1.00
2022-09-03T08:24:02.596Z,1.00
2022-09-03T08:26:31.605Z,1.75
2022-09-03T08:28:59.757Z,2.00
2022-09-03T08:31:28.414Z,2.00
2022-09-03T08:33:57.421Z,2.00
2022-09-03T08:36:27.757Z,2.00
2022-09-03T08:38:56.230Z,1.60
2022-09-03T08:41:30.262Z,0.80
2022-09-03T08:44:06.330Z,1.80
2022-09-03T08:46:38.966Z,6.75
2022-09-03T08:49:07.538Z,1.60
2022-09-03T08:51:40.506Z,2.00
2022-09-03T08:54:08.884Z,1.20
2022-09-03T08:56:38.691Z,1.00
2022-09-03T08:59:06.822Z,2.00
2022-09-03T09:01:39.601Z,1.00
2022-09-03T09:04:12.397Z,0.20
2022-09-03T09:06:44.992Z,2.00
2022-09-03T09:09:19.511Z,2.00
2022-09-03T09:11:52.014Z,4.00
2022-09-03T09:14:22.159Z,2.00
2022-09-03T09:16:56.140Z,2.20
2022-09-03T09:19:33.464Z,1.50
2022-09-03T09:22:03.886Z,1.75
2022-09-03T09:24:36.749Z,1.25
2022-09-03T09:27:06.461Z,2.00
2022-09-03T09:29:35.306Z,2.00
2022-09-03T09:32:04.766Z,1.00
2022-09-03T09:34:36.306Z,1.20
2022-09-03T09:37:07.713Z,1.80
2022-09-03T09:39:35.799Z,2.00
2022-09-03T09:42:09.537Z,2.00
2022-09-03T09:44:37.771Z,1.00
2022-09-03T09:47:07.741Z,1.60
2022-09-03T09:49:37.061Z,1.75
2022-09-03T09:52:11.938Z,1.00
2022-09-03T09:54:40.113Z,0.75
2022-09-03T09:57:09.552Z,2.00
2022-09-03T09:59:38.872Z,3.00
2022-09-03T10:02:13.729Z,2.00
2022-09-03T10:04:50.434Z,1.50
2022-09-03T10:07:24.550Z,0.00
2022-09-03T10:10:02.877Z,1.20
2022-09-03T10:12:36.169Z,1.00
2022-09-03T10:15:14.051Z,2.00
2022-09-03T10:17:48.206Z,0.25
2022-09-03T10:20:30.902Z,1.20
2022-09-03T10:23:02.678Z,1.25
2022-09-03T10:25:39.117Z,1.40
2022-09-03T10:28:09.435Z,1.75
2022-09-03T10:30:55.706Z,0.00
2022-09-03T10:33:25.568Z,1.00
2022-09-03T10:35:54.604Z,2.00
2022-09-03T10:38:27.957Z,1.00
2022-09-03T10:41:00.923Z,2.00
2022-09-03T10:43:44.914Z,1.50
2022-09-03T10:46:19.456Z,1.00
2022-09-03T10:49:08.953Z,2.00
2022-09-03T10:51:37.748Z,1.75
2022-09-03T10:54:22.654Z,1.60
2022-09-03T10:56:55.116Z,2.00
2022-09-03T10:59:30.401Z,0.80
2022-09-03T11:02:01.238Z,1.40
2022-09-03T11:04:31.746Z,1.80
2022-09-03T11:07:07.241Z,3.00
2022-09-03T11:09:38.209Z,2.00
2022-09-03T11:12:07.728Z,2.60
2022-09-03T11:14:36.902Z,2.80
2022-09-03T11:17:07.879Z,2.00
2022-09-03T11:19:37.966Z,2.75
2022-09-03T11:22:06.603Z,1.00
2022-09-03T11:24:37.413Z,1.20
2022-09-03T11:27:13.470Z,2.60
2022-09-03T11:29:45.404Z,2.00
2022-09-03T11:32:17.304Z,3.00
2022-09-03T11:34:49.135Z,1.25
2022-09-03T11:37:19.733Z,2.00
2022-09-03T11:39:58.060Z,2.00
2022-09-03T11:42:30.054Z,2.00
2022-09-03T11:45:01.791Z,2.00
2022-09-03T11:47:39.793Z,2.00
2022-09-03T11:50:09.446Z,2.00
2022-09-03T11:52:40.659Z,2.00
2022-09-03T11:55:10.228Z,2.00
2022-09-03T11:57:41.710Z,2.75
2022-09-03T12:00:12.364Z,2.00
2022-09-03T12:02:45.320Z,2.00
2022-09-03T12:05:20.586Z,2.00
2022-09-03T12:08:10.672Z,2.00
2022-09-03T12:10:47.629Z,1.00
2022-09-03T12:13:24.162Z,2.00
2022-09-03T12:16:16.089Z,1.50
2022-09-03T12:18:45.707Z,2.00
2022-09-03T12:21:14.647Z,1.60
2022-09-03T12:23:44.577Z,1.00
2022-09-03T12:26:15.936Z,1.50
2022-09-03T12:28:46.658Z,2.00
2022-09-03T12:31:22.832Z,2.40
2022-09-03T12:33:51.697Z,1.60
2022-09-03T12:36:19.793Z,2.00
2022-09-03T12:39:10.580Z,0.80
2022-09-03T12:41:39.512Z,2.00
2022-09-03T12:44:07.644Z,2.00
2022-09-03T12:46:35.934Z,0.60
2022-09-03T12:52:05.131Z,1.00
2022-09-03T12:54:34.231Z,2.00
2022-09-03T12:57:03.712Z,2.00
2022-09-03T12:59:34.123Z,0.50
2022-09-03T13:02:03.355Z,1.50
2022-09-03T13:04:33.041Z,3.00
2022-09-03T13:07:03.694Z,2.00
2022-09-03T13:09:32.339Z,2.00
2022-09-03T13:12:01.945Z,1.40
2022-09-03T13:14:31.400Z,2.00
2022-09-03T13:17:11.577Z,1.50
2022-09-03T13:19:49.474Z,13.00
2022-09-03T13:22:24.015Z,8.00
2022-09-03T13:25:02.308Z,3.20
2022-09-03T13:27:33.866Z,2.80
2022-09-03T13:30:10.488Z,3.00
2022-09-03T13:32:51.849Z,3.80
2022-09-03T13:35:24.992Z,3.00
2022-09-03T13:37:57.089Z,2.80
2022-09-03T13:40:27.517Z,2.20
2022-09-03T13:42:57.646Z,2.00
2022-09-03T13:45:31.623Z,1.60
2022-09-03T13:48:19.660Z,2.00
2022-09-03T13:50:50.342Z,3.60
2022-09-03T13:53:20.232Z,4.00
2022-09-03T13:55:55.766Z,3.40
2022-09-03T13:58:28.195Z,1.00
2022-09-03T14:01:09.033Z,2.75
2022-09-03T14:03:39.699Z,3.00
2022-09-03T14:06:10.865Z,2.00
2022-09-03T14:08:55.455Z,1.00
2022-09-03T14:11:27.676Z,1.00
2022-09-03T14:14:13.015Z,1.50
2022-09-03T14:16:45.610Z,4.00
2022-09-03T14:19:16.613Z,2.50
2022-09-03T14:21:47.637Z,3.00
2022-09-03T14:24:17.621Z,1.00
2022-09-03T14:26:52.114Z,3.00
2022-09-03T14:29:28.373Z,2.40
2022-09-03T14:32:22.432Z,3.50
2022-09-03T14:35:01.664Z,2.20
2022-09-03T14:37:40.593Z,2.00
2022-09-03T14:40:14.163Z,2.00
2022-09-03T14:43:03.668Z,2.00
2022-09-03T14:45:52.447Z,2.40
2022-09-03T14:48:37.098Z,1.80
2022-09-03T14:51:16.442Z,3.00
2022-09-03T14:54:02.336Z,2.00
2022-09-03T14:56:38.655Z,2.00
2022-09-03T14:59:15.176Z,3.00
2022-09-03T15:01:43.553Z,2.00
2022-09-03T15:04:22.406Z,1.80
2022-09-03T15:06:58.733Z,2.80
2022-09-03T15:09:30.184Z,2.40
2022-09-03T15:12:00.552Z,2.00
2022-09-03T15:14:31.166Z,1.00
2022-09-03T15:17:01.635Z,3.00
2022-09-03T15:19:49.923Z,2.00
2022-09-03T15:22:26.172Z,1.00
2022-09-03T15:24:55.962Z,2.00
2022-09-03T15:27:41.029Z,2.40
2022-09-03T15:30:10.541Z,2.00
2022-09-03T15:32:47.551Z,1.60
2022-09-03T15:35:30.980Z,1.00
2022-09-03T15:38:00.094Z,1.40
2022-09-03T15:40:30.572Z,2.00
2022-09-03T15:43:02.205Z,2.20
2022-09-03T15:45:36.171Z,2.00
2022-09-03T15:48:11.086Z,2.00
2022-09-03T15:50:49.185Z,2.00
2022-09-03T15:53:26.702Z,1.25
2022-09-03T15:56:04.972Z,2.00
2022-09-03T15:58:35.321Z,0.60
2022-09-03T16:01:06.160Z,2.00
2022-09-03T16:03:46.860Z,2.00
2022-09-03T16:06:26.339Z,2.00
2022-09-03T16:08:55.942Z,3.00
2022-09-03T16:11:32.252Z,2.00
2022-09-03T16:14:04.681Z,3.00
2022-09-03T16:16:42.854Z,2.00
2022-09-03T16:19:13.661Z,2.75
2022-09-03T16:21:47.502Z,2.00
2022-09-03T16:24:18.800Z,3.00
2022-09-03T16:26:51.220Z,3.40
2022-09-03T16:29:20.126Z,2.00
2022-09-03T16:31:53.438Z,2.00
2022-09-03T16:34:25.332Z,1.40
2022-09-03T16:36:59.114Z,3.00
2022-09-03T16:39:32.713Z,4.00
2022-09-03T16:42:03.864Z,1.50
2022-09-03T16:44:38.785Z,2.20
2022-09-03T16:47:09.090Z,2.00
2022-09-03T16:49:47.673Z,3.00
2022-09-03T16:52:33.689Z,2.75
2022-09-03T16:55:13.813Z,3.00
2022-09-03T16:57:50.789Z,2.60
2022-09-03T17:00:19.918Z,3.00
2022-09-03T17:03:26.054Z,4.00
2022-09-03T17:06:30.857Z,2.80
2022-09-03T17:09:04.246Z,2.00
2022-09-03T17:11:42.218Z,2.00
2022-09-03T17:14:34.720Z,2.80
2022-09-03T17:17:06.499Z,2.25
2022-09-03T17:19:36.962Z,2.80
2022-09-03T17:22:12.604Z,2.50
2022-09-03T17:24:48.053Z,3.60
2022-09-03T17:27:39.301Z,2.60
2022-09-03T17:30:10.084Z,3.00
2022-09-03T17:33:05.594Z,2.75
2022-09-03T17:35:38.456Z,5.00
2022-09-03T17:38:15.363Z,14.50
2022-09-03T17:40:47.419Z,12.00
2022-09-03T17:43:19.759Z,6.50
2022-09-03T17:45:53.150Z,4.00
2022-09-03T17:48:31.323Z,3.00
2022-09-03T17:51:01.968Z,3.00
2022-09-03T17:53:34.642Z,3.40
2022-09-03T17:56:05.545Z,4.00
2022-09-03T17:58:35.461Z,3.00
2022-09-03T18:01:14.324Z,4.40
2022-09-03T18:03:45.247Z,3.50
2022-09-03T18:06:22.163Z,3.00
2022-09-03T18:08:52.949Z,2.20
2022-09-03T18:11:26.825Z,4.00
2022-09-03T18:13:59.234Z,2.00
2022-09-03T18:16:28.504Z,3.00
2022-09-03T18:19:01.001Z,3.00
2022-09-03T18:21:48.164Z,3.50
2022-09-03T18:24:45.853Z,3.00
2022-09-03T18:27:40.000Z,3.50
2022-09-03T18:30:26.967Z,2.60
2022-09-03T18:33:12.661Z,4.00
2022-09-03T18:35:58.354Z,3.00
2022-09-03T18:38:44.945Z,4.00
2022-09-03T18:41:39.190Z,3.00
2022-09-03T18:44:30.028Z,2.00
2022-09-03T18:50:26.886Z,2.50
2022-09-03T18:53:14.672Z,3.00
2022-09-03T18:56:06.130Z,3.00
2022-09-03T18:58:55.868Z,5.00
2022-09-03T19:01:47.545Z,4.00
2022-09-03T19:04:35.959Z,3.00
2022-09-03T19:07:24.177Z,3.00
2022-09-03T19:10:12.841Z,3.20
2022-09-03T19:13:05.781Z,3.75
2022-09-03T19:15:56.352Z,4.00
2022-09-03T19:18:50.537Z,3.40
2022-09-03T19:21:39.852Z,2.50
2022-09-03T19:24:25.993Z,2.40
2022-09-03T19:27:46.106Z,3.60
2022-09-03T19:30:24.500Z,3.00
2022-09-03T19:33:21.788Z,3.00
2022-09-03T19:36:12.390Z,3.00
2022-09-03T19:39:03.024Z,3.00
2022-09-03T19:41:50.581Z,3.00
2022-09-03T19:44:44.883Z,3.00
2022-09-03T19:47:31.048Z,2.00
2022-09-03T19:50:20.605Z,4.00
2022-09-03T19:53:09.554Z,3.00
2022-09-03T19:55:58.266Z,3.00
2022-09-03T19:58:45.178Z,3.40
2022-09-03T20:01:31.111Z,3.00
2022-09-03T20:04:18.421Z,3.00
2022-09-03T20:07:04.105Z,3.00
2022-09-03T20:09:52.946Z,2.00
2022-09-03T20:12:21.858Z,3.50
2022-09-03T20:14:49.948Z,3.00
2022-09-03T20:17:23.753Z,3.00
2022-09-03T20:20:05.546Z,2.25
2022-09-03T20:22:37.068Z,3.00
2022-09-03T20:25:29.192Z,2.33
2022-09-03T20:28:05.876Z,4.00
2022-09-03T20:30:35.872Z,3.00
2022-09-03T20:33:25.853Z,2.00
2022-09-03T20:35:59.510Z,3.00
2022-09-03T20:38:49.573Z,3.00
2022-09-03T20:41:23.401Z,3.00
2022-09-03T20:44:00.190Z,3.00
2022-09-03T20:46:35.890Z,2.00
2022-09-03T20:49:07.841Z,3.00
2022-09-03T20:51:37.915Z,3.00
2022-09-03T20:54:14.189Z,2.00
2022-09-03T20:56:56.714Z,2.00
2022-09-03T20:59:31.357Z,3.40
2022-09-03T21:02:02.220Z,3.00
2022-09-03T21:04:42.561Z,3.40
2022-09-03T21:07:15.703Z,3.00
2022-09-03T21:09:48.536Z,2.80
2022-09-03T21:12:24.889Z,4.60
2022-09-03T21:14:55.444Z,2.00
2022-09-03T21:17:32.119Z,2.00
2022-09-03T21:20:09.362Z,3.00
2022-09-03T21:22:42.116Z,2.00
2022-09-03T21:25:13.240Z,2.00
2022-09-03T21:27:44.010Z,4.00
2022-09-03T21:30:14.541Z,4.00
2022-09-03T21:32:44.967Z,2.60
2022-09-03T21:35:17.604Z,2.25
2022-09-03T21:37:50.764Z,1.80
2022-09-03T21:40:24.402Z,2.00
2022-09-03T21:42:59.835Z,2.00
2022-09-03T21:45:30.681Z,1.40
2022-09-03T21:48:00.513Z,2.00
2022-09-03T21:50:41.044Z,2.00
2022-09-03T21:53:12.492Z,2.00
2022-09-03T21:55:43.345Z,3.00
2022-09-03T21:58:17.562Z,2.00
2022-09-03T22:00:45.687Z,2.80
2022-09-03T22:03:14.344Z,3.00
2022-09-03T22:05:45.946Z,0.60
2022-09-03T22:08:18.606Z,1.50
2022-09-03T22:10:55.533Z,2.00
2022-09-03T22:13:29.788Z,2.00
2022-09-03T22:16:03.247Z,2.00
2022-09-03T22:18:36.548Z,2.60
2022-09-03T22:21:11.462Z,2.00
2022-09-03T22:23:44.738Z,3.40
2022-09-03T22:26:27.390Z,2.00
2022-09-03T22:29:05.723Z,2.75
2022-09-03T22:31:46.616Z,3.00
2022-09-03T22:34:26.165Z,4.00
2022-09-03T22:36:56.117Z,2.50
2022-09-03T22:39:27.854Z,3.00
2022-09-03T22:42:10.117Z,2.00
2022-09-03T22:44:49.207Z,4.00
2022-09-03T22:47:20.221Z,4.00
2022-09-03T22:49:51.282Z,3.00
2022-09-03T22:52:33.859Z,3.00
2022-09-03T22:55:15.123Z,2.00
2022-09-03T22:57:47.423Z,5.60
2022-09-03T23:00:17.818Z,2.00
2022-09-03T23:02:46.890Z,2.20
2022-09-03T23:05:24.917Z,4.50
2022-09-03T23:07:55.371Z,2.00
2022-09-03T23:10:26.177Z,3.00
2022-09-03T23:12:58.969Z,2.00
2022-09-03T23:15:30.607Z,2.00
2022-09-03T23:18:05.523Z,2.60
2022-09-03T23:20:34.426Z,1.50
2022-09-03T23:23:08.496Z,2.00
2022-09-03T23:25:38.457Z,2.00
2022-09-03T23:28:09.730Z,2.00
2022-09-03T23:30:39.374Z,2.00
2022-09-03T23:33:08.590Z,2.00
2022-09-03T23:35:39.610Z,2.00
2022-09-03T23:38:13.266Z,2.50
2022-09-03T23:40:44.345Z,2.00
2022-09-03T23:43:33.974Z,1.75
2022-09-03T23:46:05.883Z,2.00
2022-09-03T23:48:38.762Z,2.00
2022-09-03T23:51:10.313Z,2.00
2022-09-03T23:53:43.781Z,3.00
2022-09-03T23:56:27.922Z,2.00
2022-09-03T23:58:59.629Z,3.50
